Fredericton Junction, Canada
Current Conditions -  °F | °C
As of 2:00 AM on Thursday 29 Jan 2015 (Local Time) from CYFC Reporting Station
Clear Clear  
Wind Chill: -3°   Ceiling: Unl
Heat Index:   Visibility: 9mi
Dew Point:   Wind: 7mph
Humidity: 79%   Direction: 270°W
Pressure: 30.12"   Gusts: NA
Location:  45.67°N, 66.62°W
Report Text: CYFC 290600Z AUTO 27006KT 9SM CLR M13/M16 A3012 RMK PRESRR SLP202
Loading
Personal Weather Stations






























Interactive Weather Map New forecast layout! Learn more

10-Day Weather Forecast

Advertisements
Track Severe Weather on mobile